Pori Airport

About
Name: Pori Airport
Identifier:  POR/EFPO
Local Time:  17. Aug 13:42 EEST
Location
Flights per Day
4 flights
Distance: 213km (132mi)
Punctuality
96% (0 flights per day delayed)
Delay Average: 10 minutes
Current Weather
  14kt (25km/h / 16mph) from 180°
  9km (6 mi.)
 METAR EFPO 171020Z AUTO 18014KT 9999 -RA SCT019/// BKN024/// 19/16 Q1010

Current Flights

Departures
Number Departure To Airline
Arrivals
Number Arrival From Airline

Current Delays

Departures
N/A
Arrivals
N/A

Destinations

Top Destinations
Airport Flights
per week
Seats
per week
  Helsinki (HEL) 9 - 1 0
  Stuttgart (STR) 0 7 0 1
  Alesund (AES) 0 7 0 1
  Budapest (BUD) 0 - 0 0

Airlines & Planes

Top Airlines
Airline Flights
per Day
Seats
per Day
Budapest Aircraft Service 1 -
  Sun Air of Scandinavia 0 2
Top Plane Types
Model Flights Seats
Embraer EMB120 1.4/day - 0
Dornier 328 0.1/day 2/day 2.1333333333333333